createdAt,value
2023-02-13T00:00:23.187Z,3.30
2023-02-13T00:01:25.189Z,3.32
2023-02-13T00:02:27.854Z,3.32
2023-02-13T00:03:30.391Z,3.32
2023-02-13T00:04:32.269Z,3.35
2023-02-13T00:05:34.158Z,3.36
2023-02-13T00:06:36.094Z,3.33
2023-02-13T00:07:37.985Z,3.33
2023-02-13T00:08:39.900Z,3.33
2023-02-13T00:09:41.824Z,3.33
2023-02-13T00:10:43.705Z,3.34
2023-02-13T00:11:45.647Z,3.37
2023-02-13T00:12:47.575Z,3.38
2023-02-13T00:13:49.466Z,3.35
2023-02-13T00:14:51.404Z,3.34
2023-02-13T00:15:57.801Z,3.29
2023-02-13T00:16:59.699Z,3.25
2023-02-13T00:18:02.802Z,3.27
2023-02-13T00:19:04.613Z,3.26
2023-02-13T00:20:06.707Z,3.29
2023-02-13T00:21:12.573Z,3.30
2023-02-13T00:22:17.683Z,3.31
2023-02-13T00:23:19.555Z,3.24
2023-02-13T00:24:21.458Z,3.20
2023-02-13T00:25:23.268Z,3.23
2023-02-13T00:26:25.213Z,3.23
2023-02-13T00:27:27.108Z,3.20
2023-02-13T00:28:29.103Z,3.15
2023-02-13T00:29:30.967Z,3.10
2023-02-13T00:30:32.772Z,3.10
2023-02-13T00:31:34.818Z,3.12
2023-02-13T00:32:36.772Z,3.12
2023-02-13T00:33:39.059Z,3.12
2023-02-13T00:34:41.017Z,3.15
2023-02-13T00:35:42.871Z,3.18
2023-02-13T00:36:44.827Z,3.22
2023-02-13T00:37:46.767Z,3.26
2023-02-13T00:38:49.171Z,3.28
2023-02-13T00:39:51.005Z,3.30
2023-02-13T00:40:52.900Z,3.29
2023-02-13T00:41:54.800Z,3.28
2023-02-13T00:42:56.691Z,3.27
2023-02-13T00:43:58.482Z,3.24
2023-02-13T00:45:00.302Z,3.23
2023-02-13T00:46:02.351Z,3.25
2023-02-13T00:47:04.265Z,3.25
2023-02-13T00:48:06.323Z,3.27
2023-02-13T00:49:09.600Z,3.30
2023-02-13T00:50:11.479Z,3.29
2023-02-13T00:51:13.728Z,3.28
2023-02-13T00:52:15.630Z,3.22
2023-02-13T00:53:17.450Z,3.19
2023-02-13T00:54:19.336Z,3.16
2023-02-13T00:55:21.229Z,3.16
2023-02-13T00:56:23.139Z,3.19
2023-02-13T00:57:25.085Z,3.20
2023-02-13T00:58:27.967Z,3.20
2023-02-13T00:59:29.817Z,3.22
2023-02-13T01:00:31.667Z,3.23
2023-02-13T01:01:33.737Z,3.22
2023-02-13T01:02:36.552Z,3.23
2023-02-13T01:03:38.476Z,3.25
2023-02-13T01:04:40.320Z,3.24
2023-02-13T01:05:42.950Z,3.20
2023-02-13T01:06:44.895Z,3.15
2023-02-13T01:07:46.772Z,3.15
2023-02-13T01:08:48.625Z,3.18
2023-02-13T01:09:50.620Z,3.20
2023-02-13T01:10:52.537Z,3.22
2023-02-13T01:11:54.536Z,3.24
2023-02-13T01:12:56.477Z,3.22
2023-02-13T01:13:58.276Z,3.19
2023-02-13T01:15:00.114Z,3.12
2023-02-13T01:16:02.071Z,3.08
2023-02-13T01:17:04.005Z,3.09
2023-02-13T01:18:06.047Z,3.11
2023-02-13T01:19:07.947Z,3.13
2023-02-13T01:20:11.435Z,3.15
2023-02-13T01:21:16.710Z,3.14
2023-02-13T01:22:18.731Z,3.13
2023-02-13T01:23:20.612Z,3.13
2023-02-13T01:24:22.523Z,3.15
2023-02-13T01:25:24.731Z,3.16
2023-02-13T01:26:26.577Z,3.19
2023-02-13T01:27:29.254Z,3.18
2023-02-13T01:28:31.163Z,3.18
2023-02-13T01:29:33.154Z,3.18
2023-02-13T01:30:35.696Z,3.20
2023-02-13T01:31:37.623Z,3.20
2023-02-13T01:32:43.813Z,3.18
2023-02-13T01:33:45.743Z,3.17
2023-02-13T01:34:47.553Z,3.12
2023-02-13T01:35:49.861Z,3.10
2023-02-13T01:36:51.710Z,3.10
2023-02-13T01:37:53.699Z,3.13
2023-02-13T01:38:56.899Z,3.15
2023-02-13T01:39:58.724Z,3.17
2023-02-13T01:41:00.586Z,3.18
2023-02-13T01:42:02.446Z,3.21
2023-02-13T01:43:04.418Z,3.23
2023-02-13T01:44:24.979Z,3.24
2023-02-13T01:45:28.468Z,3.25
2023-02-13T01:46:39.074Z,3.25
2023-02-13T01:47:45.358Z,3.26
2023-02-13T01:48:48.927Z,3.24
2023-02-13T01:49:52.720Z,3.25
2023-02-13T01:51:09.022Z,3.24
2023-02-13T01:52:11.760Z,3.22
2023-02-13T01:53:23.540Z,3.22
2023-02-13T01:54:31.437Z,3.23
2023-02-13T01:55:35.390Z,3.23
2023-02-13T01:56:43.695Z,3.22
2023-02-13T01:57:51.000Z,3.18
2023-02-13T01:58:55.053Z,3.13
2023-02-13T02:00:07.783Z,3.12
2023-02-13T02:01:10.288Z,3.12
2023-02-13T02:02:12.567Z,3.11
2023-02-13T02:03:17.117Z,3.08
2023-02-13T02:04:34.328Z,3.04
2023-02-13T02:05:36.759Z,3.01
2023-02-13T02:06:41.252Z,2.98
2023-02-13T02:07:43.291Z,2.95
2023-02-13T02:08:46.480Z,2.93
2023-02-13T02:09:48.682Z,2.95
2023-02-13T02:10:50.538Z,2.99
2023-02-13T02:11:58.910Z,3.04
2023-02-13T02:13:03.901Z,3.06
2023-02-13T02:14:05.736Z,3.08
2023-02-13T02:15:07.969Z,3.09
2023-02-13T02:16:10.193Z,3.10
2023-02-13T02:17:12.378Z,3.11
2023-02-13T02:18:16.034Z,3.13
2023-02-13T02:19:36.744Z,3.15
2023-02-13T02:20:57.379Z,3.17
2023-02-13T02:22:02.293Z,3.20
2023-02-13T02:23:07.124Z,3.18
2023-02-13T02:24:38.296Z,3.18
2023-02-13T02:26:01.869Z,3.21
2023-02-13T02:27:12.947Z,3.21
2023-02-13T02:28:33.216Z,3.18
2023-02-13T02:29:35.064Z,3.15
2023-02-13T02:30:56.185Z,3.14
2023-02-13T02:32:00.937Z,3.12
2023-02-13T02:33:17.631Z,3.10
2023-02-13T02:34:34.795Z,3.09
2023-02-13T02:35:36.575Z,3.11
2023-02-13T02:36:48.274Z,3.12
2023-02-13T02:38:08.784Z,3.06
2023-02-13T02:39:29.419Z,3.02
2023-02-13T02:40:38.870Z,3.02
2023-02-13T02:41:43.945Z,3.04
2023-02-13T02:43:04.646Z,3.06
2023-02-13T02:44:09.546Z,3.08
2023-02-13T02:45:11.358Z,3.08
2023-02-13T02:46:13.207Z,3.09
2023-02-13T02:47:33.588Z,3.09
2023-02-13T02:49:07.847Z,3.07
2023-02-13T02:50:09.650Z,3.07
2023-02-13T02:51:11.481Z,3.08
2023-02-13T02:52:18.612Z,3.09
2023-02-13T02:53:26.778Z,3.09
2023-02-13T02:54:54.532Z,3.08
2023-02-13T02:56:00.857Z,3.08
2023-02-13T02:57:06.219Z,3.04
2023-02-13T02:58:26.415Z,3.05
2023-02-13T02:59:47.507Z,3.07
2023-02-13T03:01:09.081Z,3.10
2023-02-13T03:02:31.028Z,3.13
2023-02-13T03:03:53.390Z,3.15
2023-02-13T03:05:15.852Z,3.18
2023-02-13T03:06:24.830Z,3.20
2023-02-13T03:07:27.243Z,3.18
2023-02-13T03:08:47.998Z,3.20
2023-02-13T03:10:12.427Z,3.21
2023-02-13T03:11:32.814Z,3.23
2023-02-13T03:12:57.118Z,3.26
2023-02-13T03:14:00.475Z,3.29
2023-02-13T03:15:02.397Z,3.29
2023-02-13T03:16:23.018Z,3.29
2023-02-13T03:17:43.117Z,3.25
2023-02-13T03:19:09.200Z,3.26
2023-02-13T03:21:05.021Z,3.25
2023-02-13T03:22:23.833Z,3.20
2023-02-13T03:23:40.428Z,3.22
2023-02-13T03:24:44.941Z,3.24
2023-02-13T03:26:02.786Z,3.24
2023-02-13T03:27:07.462Z,3.22
2023-02-13T03:28:40.508Z,3.16
2023-02-13T03:30:09.218Z,3.14
2023-02-13T03:31:21.488Z,3.17
2023-02-13T03:32:46.520Z,3.22
2023-02-13T03:33:48.401Z,3.20
2023-02-13T03:35:14.862Z,3.18
2023-02-13T03:36:40.932Z,3.09
2023-02-13T03:37:57.751Z,3.04
2023-02-13T03:39:08.294Z,3.06
2023-02-13T03:40:13.212Z,3.13
2023-02-13T03:41:23.734Z,3.16
2023-02-13T03:42:33.525Z,3.16
2023-02-13T03:43:49.780Z,3.17
2023-02-13T03:45:17.495Z,3.14
2023-02-13T03:46:20.471Z,3.09
2023-02-13T03:47:22.489Z,3.07
2023-02-13T03:48:47.640Z,3.10
2023-02-13T03:50:08.655Z,3.11
2023-02-13T03:51:12.881Z,3.11
2023-02-13T03:52:21.637Z,3.08
2023-02-13T03:53:24.884Z,3.06
2023-02-13T03:54:48.266Z,3.04
2023-02-13T03:56:09.753Z,3.06
2023-02-13T03:57:34.146Z,3.11
2023-02-13T03:58:56.235Z,3.07
2023-02-13T03:59:58.879Z,3.07
2023-02-13T04:01:02.921Z,3.11
2023-02-13T04:02:11.851Z,3.13
2023-02-13T04:03:24.477Z,3.14
2023-02-13T04:04:31.245Z,3.15
2023-02-13T04:05:37.165Z,3.14
2023-02-13T04:06:44.804Z,3.10
2023-02-13T04:07:46.750Z,3.07
2023-02-13T04:08:48.773Z,3.02
2023-02-13T04:09:50.605Z,3.02
2023-02-13T04:10:59.975Z,3.05
2023-02-13T04:12:06.458Z,3.09
2023-02-13T04:13:28.378Z,3.10
2023-02-13T04:14:43.026Z,3.14
2023-02-13T04:15:54.203Z,3.18
2023-02-13T04:17:03.879Z,3.21
2023-02-13T04:18:10.642Z,3.22
2023-02-13T04:19:13.393Z,3.19
2023-02-13T04:20:15.455Z,3.10
2023-02-13T04:21:17.403Z,3.10
2023-02-13T04:22:19.302Z,3.07
2023-02-13T04:23:21.255Z,3.06
2023-02-13T04:24:23.073Z,3.04
2023-02-13T04:25:24.947Z,3.00
2023-02-13T04:26:31.307Z,2.96
2023-02-13T04:27:33.293Z,2.95
2023-02-13T04:28:35.279Z,2.95
2023-02-13T04:29:37.139Z,2.98
2023-02-13T04:30:39.326Z,3.04
2023-02-13T04:31:41.549Z,3.09
2023-02-13T04:32:43.592Z,3.03
2023-02-13T04:33:45.484Z,2.93
2023-02-13T04:34:47.352Z,2.85
2023-02-13T04:35:49.296Z,2.87
2023-02-13T04:36:51.201Z,2.89
2023-02-13T04:37:53.113Z,2.90
2023-02-13T04:38:55.083Z,2.89
2023-02-13T04:39:56.918Z,2.91
2023-02-13T04:40:59.056Z,2.93
2023-02-13T04:42:01.078Z,2.94
2023-02-13T04:43:02.920Z,2.94
2023-02-13T04:44:05.112Z,2.96
2023-02-13T04:45:07.082Z,2.95
2023-02-13T04:46:09.040Z,2.94
2023-02-13T04:47:10.926Z,2.96
2023-02-13T04:48:12.964Z,2.98
2023-02-13T04:49:14.993Z,2.98
2023-02-13T04:50:16.950Z,3.01
2023-02-13T04:51:18.845Z,2.99
2023-02-13T04:52:20.719Z,2.95
2023-02-13T04:53:22.595Z,2.96
2023-02-13T04:54:24.600Z,2.90
2023-02-13T04:55:27.415Z,2.89
2023-02-13T04:56:29.359Z,2.84
2023-02-13T04:57:31.220Z,2.87
2023-02-13T04:58:33.075Z,2.88
2023-02-13T04:59:35.094Z,2.89
2023-02-13T05:00:37.894Z,2.92
2023-02-13T05:01:39.733Z,2.95
2023-02-13T05:02:41.520Z,2.96
2023-02-13T05:03:43.991Z,2.97
2023-02-13T05:04:46.122Z,2.97
2023-02-13T05:05:49.039Z,2.95
2023-02-13T05:06:50.939Z,2.94
2023-02-13T05:07:52.832Z,2.92
2023-02-13T05:08:54.670Z,2.91
2023-02-13T05:09:57.255Z,2.92
2023-02-13T05:10:59.386Z,2.91
2023-02-13T05:12:01.858Z,2.91
2023-02-13T05:13:03.737Z,2.86
2023-02-13T05:14:05.914Z,2.81
2023-02-13T05:15:07.955Z,2.76
2023-02-13T05:16:09.899Z,2.75
2023-02-13T05:17:11.746Z,2.72
2023-02-13T05:18:13.644Z,2.69
2023-02-13T05:19:15.982Z,2.65
2023-02-13T05:20:18.256Z,2.66
2023-02-13T05:21:38.459Z,2.67
2023-02-13T05:23:09.442Z,2.72
2023-02-13T05:24:11.330Z,2.72
2023-02-13T05:25:13.343Z,2.68
2023-02-13T05:26:15.132Z,2.71
2023-02-13T05:27:17.026Z,2.69
2023-02-13T05:28:37.696Z,2.71
2023-02-13T05:29:39.689Z,2.73
2023-02-13T05:30:41.566Z,2.70
2023-02-13T05:31:43.456Z,2.68
2023-02-13T05:32:45.316Z,2.65
2023-02-13T05:33:47.190Z,2.61
2023-02-13T05:34:49.075Z,2.59
2023-02-13T05:35:50.926Z,2.60
2023-02-13T05:36:52.943Z,2.59
2023-02-13T05:37:54.905Z,2.60
2023-02-13T05:38:56.747Z,2.63
2023-02-13T05:39:58.667Z,2.67
2023-02-13T05:41:00.915Z,2.66
2023-02-13T05:42:05.146Z,2.68
2023-02-13T05:43:07.010Z,2.71
2023-02-13T05:44:09.086Z,2.67
2023-02-13T05:45:11.033Z,2.63
2023-02-13T05:46:13.192Z,2.60
2023-02-13T05:47:15.142Z,2.65
2023-02-13T05:48:17.088Z,2.66
2023-02-13T05:49:19.652Z,2.66
2023-02-13T05:50:21.717Z,2.66
2023-02-13T05:51:23.668Z,2.65
2023-02-13T05:52:25.677Z,2.65
2023-02-13T05:53:27.879Z,2.64
2023-02-13T05:54:29.860Z,2.64
2023-02-13T05:55:31.753Z,2.62
2023-02-13T05:56:33.606Z,2.65
2023-02-13T05:57:35.477Z,2.66
2023-02-13T05:58:37.409Z,2.67
2023-02-13T05:59:39.342Z,2.62
2023-02-13T06:00:41.239Z,2.60
2023-02-13T06:01:43.063Z,2.59
2023-02-13T06:02:44.909Z,2.58
2023-02-13T06:03:46.970Z,2.58
2023-02-13T06:04:48.905Z,2.55
2023-02-13T06:05:50.701Z,2.56
2023-02-13T06:06:52.553Z,2.55
2023-02-13T06:07:54.438Z,2.51
2023-02-13T06:08:56.300Z,2.48
2023-02-13T06:10:00.117Z,2.47
2023-02-13T06:11:02.330Z,2.48
2023-02-13T06:12:04.466Z,2.50
2023-02-13T06:13:06.465Z,2.55
2023-02-13T06:14:08.412Z,2.58
2023-02-13T06:15:10.370Z,2.58
2023-02-13T06:16:12.898Z,2.57
2023-02-13T06:17:14.862Z,2.56
2023-02-13T06:18:17.466Z,2.56
2023-02-13T06:19:19.395Z,2.49
2023-02-13T06:20:21.342Z,2.46
2023-02-13T06:21:23.220Z,2.50
2023-02-13T06:22:25.132Z,2.53
2023-02-13T06:23:27.025Z,2.48
2023-02-13T06:24:28.985Z,2.46
2023-02-13T06:25:30.924Z,2.47
2023-02-13T06:26:32.833Z,2.51
2023-02-13T06:27:34.692Z,2.52
2023-02-13T06:28:36.797Z,2.53
2023-02-13T06:29:38.726Z,2.54
2023-02-13T06:30:40.623Z,2.53
2023-02-13T06:31:42.419Z,2.53
2023-02-13T06:32:44.382Z,2.49
2023-02-13T06:33:46.258Z,2.52
2023-02-13T06:34:48.122Z,2.58
2023-02-13T06:35:49.962Z,2.60
2023-02-13T06:36:53.161Z,2.59
2023-02-13T06:37:55.060Z,2.60
2023-02-13T06:38:56.916Z,2.60
2023-02-13T06:39:58.797Z,2.55
2023-02-13T06:41:02.463Z,2.55
2023-02-13T06:42:04.462Z,2.58
2023-02-13T06:43:06.414Z,2.59
2023-02-13T06:44:08.344Z,2.57
2023-02-13T06:45:10.626Z,2.57
2023-02-13T06:46:12.768Z,2.59
2023-02-13T06:47:14.679Z,2.59
2023-02-13T06:48:16.653Z,2.51
2023-02-13T06:49:18.588Z,2.46
2023-02-13T06:50:20.617Z,2.42
2023-02-13T06:51:22.536Z,2.38
2023-02-13T06:52:24.426Z,2.42
2023-02-13T06:53:26.300Z,2.45
2023-02-13T06:54:44.681Z,2.46
2023-02-13T06:55:48.032Z,2.48
2023-02-13T06:56:49.923Z,2.52
2023-02-13T06:57:51.794Z,2.54
2023-02-13T06:58:53.661Z,2.58
2023-02-13T06:59:55.544Z,2.62
2023-02-13T07:00:57.777Z,2.60
2023-02-13T07:01:59.870Z,2.60
2023-02-13T07:03:03.270Z,2.58
2023-02-13T07:04:05.204Z,2.57
2023-02-13T07:05:07.111Z,2.60
2023-02-13T07:06:09.060Z,2.59
2023-02-13T07:07:10.951Z,2.56
2023-02-13T07:08:13.340Z,2.53
2023-02-13T07:09:15.472Z,2.52
2023-02-13T07:10:17.384Z,2.54
2023-02-13T07:11:20.287Z,2.57
2023-02-13T07:12:22.398Z,2.62
2023-02-13T07:13:24.349Z,2.62
2023-02-13T07:14:26.162Z,2.63
2023-02-13T07:15:28.639Z,2.62
2023-02-13T07:16:30.565Z,2.62
2023-02-13T07:17:32.676Z,2.64
2023-02-13T07:18:34.486Z,2.69
2023-02-13T07:19:36.406Z,2.73
2023-02-13T07:20:38.267Z,2.77
2023-02-13T07:21:40.279Z,2.78
2023-02-13T07:22:42.139Z,2.79
2023-02-13T07:23:44.030Z,2.85
2023-02-13T07:24:45.861Z,2.88
2023-02-13T07:25:47.724Z,2.86
2023-02-13T07:26:49.642Z,2.85
2023-02-13T07:27:51.430Z,2.86
2023-02-13T07:29:09.245Z,2.89
2023-02-13T07:30:12.688Z,2.94
2023-02-13T07:31:14.625Z,2.98
2023-02-13T07:32:16.679Z,3.02
2023-02-13T07:33:18.682Z,3.08
2023-02-13T07:34:20.559Z,3.11
2023-02-13T07:35:22.386Z,3.12
2023-02-13T07:36:24.433Z,3.16
2023-02-13T07:37:28.266Z,3.16
2023-02-13T07:38:30.903Z,3.16
2023-02-13T07:39:33.143Z,3.17
2023-02-13T07:40:35.029Z,3.11
2023-02-13T07:41:36.965Z,3.09
2023-02-13T07:42:38.947Z,3.09
2023-02-13T07:43:40.804Z,3.07
2023-02-13T07:44:42.681Z,3.10
2023-02-13T07:45:44.609Z,3.13
2023-02-13T07:46:46.567Z,3.12
2023-02-13T07:47:48.559Z,3.15
2023-02-13T07:48:52.497Z,3.16
2023-02-13T07:49:55.136Z,3.14
2023-02-13T07:51:00.489Z,3.15
2023-02-13T07:52:02.281Z,3.11
2023-02-13T07:53:04.175Z,3.08
2023-02-13T07:54:06.113Z,3.05
2023-02-13T07:55:08.470Z,3.07
2023-02-13T07:56:11.029Z,3.06
2023-02-13T07:57:14.017Z,3.08
2023-02-13T07:58:15.983Z,3.08
2023-02-13T07:59:17.931Z,3.06
2023-02-13T08:00:20.062Z,3.05
2023-02-13T08:01:22.059Z,3.03
2023-02-13T08:02:23.916Z,3.01
2023-02-13T08:03:25.894Z,3.00
2023-02-13T08:04:27.739Z,3.03
2023-02-13T08:05:31.537Z,3.05
2023-02-13T08:06:33.300Z,3.08
2023-02-13T08:07:35.590Z,3.14
2023-02-13T08:08:38.782Z,3.13
2023-02-13T08:09:58.803Z,3.17
2023-02-13T08:11:24.672Z,3.16
2023-02-13T08:12:26.599Z,3.23
2023-02-13T08:13:28.466Z,3.28
2023-02-13T08:14:30.353Z,3.26
2023-02-13T08:15:32.277Z,3.26
2023-02-13T08:16:34.243Z,3.25
2023-02-13T08:17:36.160Z,3.28
2023-02-13T08:18:38.067Z,3.25
2023-02-13T08:19:39.923Z,3.19
2023-02-13T08:20:41.826Z,3.23
2023-02-13T08:21:43.767Z,3.25
2023-02-13T08:22:45.619Z,3.28
2023-02-13T08:23:49.101Z,3.32
2023-02-13T08:24:50.945Z,3.32
2023-02-13T08:25:54.860Z,3.35
2023-02-13T08:26:57.103Z,3.40
2023-02-13T08:27:59.873Z,3.42
2023-02-13T08:29:02.009Z,3.35
2023-02-13T08:30:05.183Z,3.32
2023-02-13T08:31:11.946Z,3.32
2023-02-13T08:32:14.150Z,3.36
2023-02-13T08:33:16.000Z,3.43
2023-02-13T08:34:22.377Z,3.43
2023-02-13T08:35:29.976Z,3.43
2023-02-13T08:36:32.008Z,3.52
2023-02-13T08:37:33.905Z,3.57
2023-02-13T08:38:35.856Z,3.48
2023-02-13T08:39:38.577Z,3.48
2023-02-13T08:40:40.995Z,3.47
2023-02-13T08:41:43.860Z,3.44
2023-02-13T08:42:45.686Z,3.43
2023-02-13T08:43:47.630Z,3.41
2023-02-13T08:44:49.553Z,3.42
2023-02-13T08:45:51.411Z,3.36
2023-02-13T08:46:53.337Z,3.38
2023-02-13T08:48:04.326Z,3.43
2023-02-13T08:49:06.327Z,3.52
2023-02-13T08:50:08.734Z,3.56
2023-02-13T08:51:12.200Z,3.56
2023-02-13T08:52:14.141Z,3.63
2023-02-13T08:53:15.970Z,3.69
2023-02-13T08:54:18.003Z,3.68
2023-02-13T08:55:20.183Z,3.71
2023-02-13T08:56:22.061Z,3.70
2023-02-13T08:57:23.992Z,3.73
2023-02-13T08:58:26.075Z,3.75
2023-02-13T08:59:28.057Z,3.76
2023-02-13T09:00:30.455Z,3.78
2023-02-13T09:01:32.460Z,3.84
2023-02-13T09:02:34.683Z,3.85
2023-02-13T09:03:37.282Z,3.84
2023-02-13T09:04:39.259Z,3.85
2023-02-13T09:05:41.152Z,3.86
2023-02-13T09:06:43.104Z,3.93
2023-02-13T09:07:45.176Z,3.96
2023-02-13T09:08:47.006Z,3.96
2023-02-13T09:09:49.070Z,3.93
2023-02-13T09:10:55.947Z,3.99
2023-02-13T09:11:58.245Z,4.07
2023-02-13T09:13:01.516Z,4.06
2023-02-13T09:14:03.753Z,4.09
2023-02-13T09:15:05.829Z,4.11
2023-02-13T09:16:08.731Z,4.07
2023-02-13T09:17:10.700Z,4.07
2023-02-13T09:18:12.592Z,4.10
2023-02-13T09:19:14.534Z,4.16
2023-02-13T09:20:16.441Z,4.17
2023-02-13T09:21:19.170Z,4.12
2023-02-13T09:22:21.067Z,4.16
2023-02-13T09:23:22.898Z,4.20
2023-02-13T09:24:24.943Z,4.14
2023-02-13T09:25:26.895Z,4.18
2023-02-13T09:26:28.810Z,4.24
2023-02-13T09:27:30.944Z,4.31
2023-02-13T09:28:33.854Z,4.31
2023-02-13T09:29:35.909Z,4.31
2023-02-13T09:30:37.753Z,4.30
2023-02-13T09:31:39.747Z,4.30
2023-02-13T09:32:42.323Z,4.23
2023-02-13T09:33:45.240Z,4.25
2023-02-13T09:34:47.227Z,4.24
2023-02-13T09:35:49.092Z,4.26
2023-02-13T09:36:54.687Z,4.27
2023-02-13T09:37:56.690Z,4.29
2023-02-13T09:38:58.617Z,4.32
2023-02-13T09:40:00.442Z,4.33
2023-02-13T09:41:11.366Z,4.35
2023-02-13T09:42:19.410Z,4.31
2023-02-13T09:43:48.902Z,4.30
2023-02-13T09:44:52.110Z,4.31
2023-02-13T09:45:56.305Z,4.34
2023-02-13T09:46:58.391Z,4.37
2023-02-13T09:48:00.421Z,4.43
2023-02-13T09:49:06.033Z,4.45
2023-02-13T09:50:29.189Z,4.44
2023-02-13T09:51:31.254Z,4.46
2023-02-13T09:52:34.011Z,4.49
2023-02-13T09:53:37.334Z,4.53
2023-02-13T09:54:39.390Z,4.55
2023-02-13T09:55:53.123Z,4.57
2023-02-13T09:57:24.101Z,4.55
2023-02-13T09:58:40.882Z,4.53
2023-02-13T09:59:42.822Z,4.53
2023-02-13T10:00:46.649Z,4.58
2023-02-13T10:01:49.479Z,4.70
2023-02-13T10:02:57.481Z,4.72
2023-02-13T10:03:59.331Z,4.79
2023-02-13T10:05:07.089Z,4.86
2023-02-13T10:06:15.710Z,4.93
2023-02-13T10:07:28.624Z,4.94
2023-02-13T10:08:41.941Z,5.04
2023-02-13T10:09:55.642Z,5.07
2023-02-13T10:11:21.033Z,5.05
2023-02-13T10:12:29.756Z,4.99
2023-02-13T10:13:50.203Z,5.04
2023-02-13T10:15:11.791Z,5.14
2023-02-13T10:16:16.423Z,5.20
2023-02-13T10:17:21.343Z,5.24
2023-02-13T10:18:25.533Z,5.29
2023-02-13T10:19:41.787Z,5.41
2023-02-13T10:20:54.934Z,5.53
2023-02-13T10:22:02.114Z,5.49
2023-02-13T10:23:27.241Z,5.63
2023-02-13T10:24:29.044Z,5.64
2023-02-13T10:25:36.302Z,5.52
2023-02-13T10:26:48.585Z,5.58
2023-02-13T10:27:52.624Z,5.77
2023-02-13T10:29:14.383Z,5.92
2023-02-13T10:30:17.810Z,5.98
2023-02-13T10:31:23.182Z,6.10
2023-02-13T10:32:31.207Z,6.25
2023-02-13T10:33:41.922Z,6.36
2023-02-13T10:34:47.448Z,6.41
2023-02-13T10:36:04.712Z,6.47
2023-02-13T10:37:13.014Z,6.60
2023-02-13T10:38:20.592Z,6.61
2023-02-13T10:39:26.856Z,6.69
2023-02-13T10:40:32.308Z,6.79
2023-02-13T10:41:44.720Z,6.84
2023-02-13T10:42:53.659Z,6.93
2023-02-13T10:44:14.105Z,6.92
2023-02-13T10:45:19.132Z,6.90
2023-02-13T10:46:30.889Z,6.85
2023-02-13T10:47:32.775Z,6.93
2023-02-13T10:48:44.017Z,7.04
2023-02-13T10:50:05.764Z,7.07
2023-02-13T10:51:16.271Z,7.20
2023-02-13T10:52:26.189Z,7.35
2023-02-13T10:53:40.853Z,7.45
2023-02-13T10:54:57.948Z,7.54
2023-02-13T10:56:35.224Z,7.52
2023-02-13T10:57:45.599Z,7.51
2023-02-13T10:58:53.972Z,7.45
2023-02-13T10:59:58.696Z,7.49
2023-02-13T11:01:07.680Z,7.50
2023-02-13T11:02:20.828Z,7.63
2023-02-13T11:03:23.731Z,7.63
2023-02-13T11:04:25.674Z,7.73
2023-02-13T11:05:31.893Z,7.83
2023-02-13T11:06:36.498Z,7.90
2023-02-13T11:07:39.668Z,7.93
2023-02-13T11:08:44.085Z,8.04
2023-02-13T11:09:47.908Z,8.12
2023-02-13T11:10:50.281Z,8.20
2023-02-13T11:11:52.853Z,8.29
2023-02-13T11:12:56.162Z,8.29
2023-02-13T11:14:08.567Z,8.30
2023-02-13T11:15:21.682Z,8.37
2023-02-13T11:16:23.682Z,8.26
2023-02-13T11:17:27.222Z,8.13
2023-02-13T11:18:30.366Z,8.05
2023-02-13T11:19:32.310Z,8.18
2023-02-13T11:20:34.232Z,8.29
2023-02-13T11:21:37.471Z,8.38
2023-02-13T11:22:42.827Z,8.39
2023-02-13T11:23:45.509Z,8.36
2023-02-13T11:24:59.376Z,8.43
2023-02-13T11:26:10.343Z,8.57
2023-02-13T11:27:14.139Z,8.74
2023-02-13T11:28:18.247Z,8.87
2023-02-13T11:29:25.979Z,9.01
2023-02-13T11:30:30.606Z,9.11
2023-02-13T11:31:36.429Z,9.20
2023-02-13T11:32:38.494Z,9.21
2023-02-13T11:33:41.006Z,9.23
2023-02-13T11:34:42.945Z,9.27
2023-02-13T11:35:46.028Z,9.29
2023-02-13T11:36:52.030Z,9.36
2023-02-13T11:38:12.644Z,9.49
2023-02-13T11:39:21.840Z,9.66
2023-02-13T11:40:31.317Z,9.66
2023-02-13T11:41:39.788Z,9.80
2023-02-13T11:42:42.646Z,9.87
2023-02-13T11:43:52.697Z,9.72
2023-02-13T11:45:06.606Z,9.76
2023-02-13T11:46:14.061Z,9.71
2023-02-13T11:47:17.029Z,9.69
2023-02-13T11:48:23.588Z,9.74
2023-02-13T11:49:26.861Z,9.88
2023-02-13T11:50:40.777Z,9.98
2023-02-13T11:51:50.503Z,10.05
2023-02-13T11:53:03.475Z,10.18
2023-02-13T11:54:05.649Z,10.34
2023-02-13T11:55:26.449Z,10.47
2023-02-13T11:56:28.297Z,10.55
2023-02-13T11:57:30.099Z,10.47
2023-02-13T11:58:32.212Z,10.44
2023-02-13T11:59:40.060Z,10.38
2023-02-13T12:00:42.623Z,10.46
2023-02-13T12:01:49.415Z,10.35
2023-02-13T12:02:51.358Z,10.43
2023-02-13T12:04:07.803Z,10.59
2023-02-13T12:05:23.658Z,10.53
2023-02-13T12:06:25.512Z,10.52
2023-02-13T12:07:28.864Z,10.54
2023-02-13T12:08:31.734Z,10.62
2023-02-13T12:09:33.588Z,10.68
2023-02-13T12:10:37.823Z,10.67
2023-02-13T12:11:42.732Z,10.71
2023-02-13T12:12:47.680Z,10.77
2023-02-13T12:13:50.576Z,10.82
2023-02-13T12:14:52.494Z,10.93
2023-02-13T12:16:00.963Z,11.00
2023-02-13T12:17:03.035Z,11.09
2023-02-13T12:18:25.865Z,11.24
2023-02-13T12:19:35.569Z,11.23
2023-02-13T12:21:15.812Z,11.25
2023-02-13T12:22:30.772Z,11.39
2023-02-13T12:23:48.226Z,11.57
2023-02-13T12:25:01.944Z,11.81
2023-02-13T12:26:10.448Z,11.84
2023-02-13T12:27:30.998Z,11.80
2023-02-13T12:28:35.464Z,12.05
2023-02-13T12:29:55.834Z,12.13
2023-02-13T12:31:16.507Z,12.06
2023-02-13T12:32:20.016Z,11.96
2023-02-13T12:33:27.784Z,11.83
2023-02-13T12:34:48.188Z,11.90
2023-02-13T12:35:55.962Z,11.68
2023-02-13T12:37:04.842Z,11.47
2023-02-13T12:38:25.446Z,11.44
2023-02-13T12:39:33.531Z,11.22
2023-02-13T12:40:44.166Z,11.21
2023-02-13T12:41:49.043Z,11.28
2023-02-13T12:43:04.979Z,11.29
2023-02-13T12:44:06.837Z,11.30
2023-02-13T12:45:08.695Z,11.44
2023-02-13T12:46:22.405Z,11.58
2023-02-13T12:47:27.407Z,11.53
2023-02-13T12:48:40.450Z,11.54
2023-02-13T12:49:43.255Z,11.51
2023-02-13T12:50:54.359Z,11.50
2023-02-13T12:52:11.064Z,11.50
2023-02-13T12:53:16.731Z,11.59
2023-02-13T12:54:20.939Z,11.57
2023-02-13T12:55:35.322Z,11.56
2023-02-13T12:56:43.026Z,11.54
2023-02-13T12:57:44.802Z,11.46
2023-02-13T12:59:09.646Z,11.39
2023-02-13T13:00:30.085Z,11.38
2023-02-13T13:01:35.001Z,11.40
2023-02-13T13:02:57.068Z,11.44
2023-02-13T13:04:05.064Z,11.42
2023-02-13T13:05:19.199Z,11.46
2023-02-13T13:06:27.237Z,11.41
2023-02-13T13:07:41.132Z,11.45
2023-02-13T13:08:56.313Z,11.51
2023-02-13T13:10:00.862Z,11.60
2023-02-13T13:11:02.635Z,11.63
2023-02-13T13:12:16.754Z,11.51
2023-02-13T13:13:35.892Z,11.43
2023-02-13T13:14:56.189Z,11.29
2023-02-13T13:16:19.434Z,11.11
2023-02-13T13:17:40.278Z,10.91
2023-02-13T13:18:42.068Z,10.71
2023-02-13T13:19:57.644Z,10.66
2023-02-13T13:21:18.567Z,10.66
2023-02-13T13:22:35.326Z,10.84
2023-02-13T13:24:00.546Z,10.84
2023-02-13T13:25:11.618Z,10.80
2023-02-13T13:26:13.408Z,10.88
2023-02-13T13:27:25.226Z,10.75
2023-02-13T13:28:30.025Z,10.75
2023-02-13T13:29:40.134Z,10.70
2023-02-13T13:30:43.070Z,10.86
2023-02-13T13:31:48.735Z,10.98
2023-02-13T13:33:02.747Z,11.10
2023-02-13T13:34:06.976Z,11.29
2023-02-13T13:35:15.728Z,11.36
2023-02-13T13:36:36.948Z,11.37
2023-02-13T13:37:44.682Z,11.13
2023-02-13T13:39:05.296Z,11.02
2023-02-13T13:40:24.504Z,10.96
2023-02-13T13:41:26.419Z,10.85
2023-02-13T13:42:31.284Z,10.89
2023-02-13T13:43:43.820Z,10.78
2023-02-13T13:44:51.580Z,10.81
2023-02-13T13:46:04.243Z,10.84
2023-02-13T13:47:13.143Z,11.00
2023-02-13T13:48:41.102Z,11.09
2023-02-13T13:49:48.864Z,10.98
2023-02-13T13:50:51.121Z,10.80
2023-02-13T13:51:53.098Z,10.79
2023-02-13T13:53:07.233Z,10.73
2023-02-13T13:54:08.998Z,10.81
2023-02-13T13:55:30.732Z,10.67
2023-02-13T13:56:50.966Z,10.72
2023-02-13T13:58:00.132Z,10.79
2023-02-13T13:59:02.034Z,10.91
2023-02-13T14:00:12.043Z,11.00
2023-02-13T14:01:15.796Z,11.04
2023-02-13T14:02:17.798Z,11.19
2023-02-13T14:03:24.550Z,11.16
2023-02-13T14:04:32.409Z,11.19
2023-02-13T14:05:35.570Z,11.22
2023-02-13T14:06:46.383Z,11.13
2023-02-13T14:07:50.385Z,11.07
2023-02-13T14:08:52.367Z,11.12
2023-02-13T14:09:54.432Z,11.29
2023-02-13T14:11:01.172Z,11.44
2023-02-13T14:12:22.968Z,11.50
2023-02-13T14:13:50.958Z,11.63
2023-02-13T14:14:54.001Z,11.73
2023-02-13T14:15:55.852Z,11.73
2023-02-13T14:16:58.728Z,11.79
2023-02-13T14:18:20.892Z,11.79
2023-02-13T14:19:38.037Z,11.91
2023-02-13T14:20:50.849Z,11.92
2023-02-13T14:21:53.097Z,11.89
2023-02-13T14:22:55.089Z,11.68
2023-02-13T14:24:01.047Z,11.77
2023-02-13T14:25:05.850Z,11.80
2023-02-13T14:26:16.598Z,11.74
2023-02-13T14:27:32.327Z,11.95
2023-02-13T14:28:34.303Z,12.10
2023-02-13T14:29:36.147Z,12.11
2023-02-13T14:30:40.733Z,12.05
2023-02-13T14:31:44.479Z,12.30
2023-02-13T14:32:46.664Z,12.23
2023-02-13T14:33:56.622Z,12.27
2023-02-13T14:35:00.320Z,12.10
2023-02-13T14:36:07.935Z,12.01
2023-02-13T14:37:21.177Z,12.04